sensor_id;sensor_type;location;lat;lon;timestamp;pressure;altitude;pressure_sealevel;temperature
48894;BMP280;34710;35.798;139.446;2023-05-20T00:01:32;99920.41;;;22.20
48894;BMP280;34710;35.798;139.446;2023-05-20T00:03:57;99922.78;;;21.34
48894;BMP280;34710;35.798;139.446;2023-05-20T00:06:23;99930.17;;;21.80
48894;BMP280;34710;35.798;139.446;2023-05-20T00:08:47;99933.27;;;22.65
48894;BMP280;34710;35.798;139.446;2023-05-20T00:11:12;99935.62;;;22.02
48894;BMP280;34710;35.798;139.446;2023-05-20T00:13:38;99937.61;;;22.42
48894;BMP280;34710;35.798;139.446;2023-05-20T00:16:04;99942.85;;;22.89
48894;BMP280;34710;35.798;139.446;2023-05-20T00:18:29;99945.43;;;22.40
48894;BMP280;34710;35.798;139.446;2023-05-20T00:20:54;99949.13;;;22.69
48894;BMP280;34710;35.798;139.446;2023-05-20T00:23:20;99949.21;;;22.05
48894;BMP280;34710;35.798;139.446;2023-05-20T00:25:45;99948.77;;;22.63
48894;BMP280;34710;35.798;139.446;2023-05-20T00:28:10;99952.87;;;21.67
48894;BMP280;34710;35.798;139.446;2023-05-20T00:30:39;99955.26;;;22.03
48894;BMP280;34710;35.798;139.446;2023-05-20T00:33:01;99957.32;;;22.03
48894;BMP280;34710;35.798;139.446;2023-05-20T00:35:26;99959.05;;;21.24
48894;BMP280;34710;35.798;139.446;2023-05-20T00:37:52;99958.08;;;22.12
48894;BMP280;34710;35.798;139.446;2023-05-20T00:40:17;99959.10;;;21.69
48894;BMP280;34710;35.798;139.446;2023-05-20T00:42:43;99958.88;;;21.99
48894;BMP280;34710;35.798;139.446;2023-05-20T00:45:09;99964.20;;;21.53
48894;BMP280;34710;35.798;139.446;2023-05-20T00:47:34;99969.00;;;22.14
48894;BMP280;34710;35.798;139.446;2023-05-20T00:49:58;99972.37;;;22.48
48894;BMP280;34710;35.798;139.446;2023-05-20T00:52:24;99975.95;;;22.51
48894;BMP280;34710;35.798;139.446;2023-05-20T00:54:49;99987.02;;;22.06
48894;BMP280;34710;35.798;139.446;2023-05-20T00:57:14;99990.24;;;20.54
48894;BMP280;34710;35.798;139.446;2023-05-20T00:59:39;99993.70;;;21.34
48894;BMP280;34710;35.798;139.446;2023-05-20T01:02:05;99991.83;;;22.00
48894;BMP280;34710;35.798;139.446;2023-05-20T01:04:30;99995.44;;;22.04
48894;BMP280;34710;35.798;139.446;2023-05-20T01:06:54;99991.28;;;22.53
48894;BMP280;34710;35.798;139.446;2023-05-20T01:09:19;99995.40;;;22.49
48894;BMP280;34710;35.798;139.446;2023-05-20T01:11:51;99996.35;;;22.36
48894;BMP280;34710;35.798;139.446;2023-05-20T01:14:11;100000.96;;;22.70
48894;BMP280;34710;35.798;139.446;2023-05-20T01:16:36;100006.11;;;23.21
48894;BMP280;34710;35.798;139.446;2023-05-20T01:19:02;100005.98;;;23.57
48894;BMP280;34710;35.798;139.446;2023-05-20T01:21:27;100009.88;;;23.05
48894;BMP280;34710;35.798;139.446;2023-05-20T01:23:51;100008.99;;;23.78
48894;BMP280;34710;35.798;139.446;2023-05-20T01:26:17;100008.55;;;23.50
48894;BMP280;34710;35.798;139.446;2023-05-20T01:28:42;100007.55;;;23.71
48894;BMP280;34710;35.798;139.446;2023-05-20T01:31:13;100004.29;;;24.04
48894;BMP280;34710;35.798;139.446;2023-05-20T01:33:34;100004.60;;;24.43
48894;BMP280;34710;35.798;139.446;2023-05-20T01:35:58;100004.90;;;24.36
48894;BMP280;34710;35.798;139.446;2023-05-20T01:38:24;100010.59;;;24.26
48894;BMP280;34710;35.798;139.446;2023-05-20T01:40:49;100001.85;;;24.01
48894;BMP280;34710;35.798;139.446;2023-05-20T01:43:15;100004.86;;;23.98
48894;BMP280;34710;35.798;139.446;2023-05-20T01:45:42;100013.18;;;23.41
48894;BMP280;34710;35.798;139.446;2023-05-20T01:48:05;100016.34;;;23.34
48894;BMP280;34710;35.798;139.446;2023-05-20T01:50:29;100021.03;;;23.07
48894;BMP280;34710;35.798;139.446;2023-05-20T01:52:55;100014.68;;;23.47
48894;BMP280;34710;35.798;139.446;2023-05-20T01:55:20;100011.97;;;23.68
48894;BMP280;34710;35.798;139.446;2023-05-20T01:57:45;100012.17;;;24.61
48894;BMP280;34710;35.798;139.446;2023-05-20T02:00:11;100011.74;;;25.17
48894;BMP280;34710;35.798;139.446;2023-05-20T02:02:35;100011.01;;;25.19
48894;BMP280;34710;35.798;139.446;2023-05-20T02:05:00;100015.78;;;24.42
48894;BMP280;34710;35.798;139.446;2023-05-20T02:07:25;100005.29;;;24.94
48894;BMP280;34710;35.798;139.446;2023-05-20T02:09:50;100005.77;;;25.43
48894;BMP280;34710;35.798;139.446;2023-05-20T02:12:15;100008.97;;;24.68
48894;BMP280;34710;35.798;139.446;2023-05-20T02:14:40;100000.44;;;24.64
48894;BMP280;34710;35.798;139.446;2023-05-20T02:17:05;99995.37;;;24.94
48894;BMP280;34710;35.798;139.446;2023-05-20T02:19:30;99999.35;;;25.28
48894;BMP280;34710;35.798;139.446;2023-05-20T02:21:55;99996.66;;;24.40
48894;BMP280;34710;35.798;139.446;2023-05-20T02:24:20;99991.17;;;26.12
48894;BMP280;34710;35.798;139.446;2023-05-20T02:26:47;99990.52;;;26.28
48894;BMP280;34710;35.798;139.446;2023-05-20T02:29:11;99986.99;;;26.69
48894;BMP280;34710;35.798;139.446;2023-05-20T02:31:35;99988.78;;;25.57
48894;BMP280;34710;35.798;139.446;2023-05-20T02:34:01;99982.19;;;25.41
48894;BMP280;34710;35.798;139.446;2023-05-20T02:36:26;99979.40;;;25.68
48894;BMP280;34710;35.798;139.446;2023-05-20T02:38:51;99977.82;;;26.30
48894;BMP280;34710;35.798;139.446;2023-05-20T02:41:16;99976.71;;;26.35
48894;BMP280;34710;35.798;139.446;2023-05-20T02:43:41;99972.62;;;27.54
48894;BMP280;34710;35.798;139.446;2023-05-20T02:46:06;99963.69;;;26.11
48894;BMP280;34710;35.798;139.446;2023-05-20T02:48:31;99962.85;;;27.11
48894;BMP280;34710;35.798;139.446;2023-05-20T02:50:57;99960.72;;;27.43
48894;BMP280;34710;35.798;139.446;2023-05-20T02:53:21;99955.22;;;27.46
48894;BMP280;34710;35.798;139.446;2023-05-20T02:55:47;99954.54;;;27.25
48894;BMP280;34710;35.798;139.446;2023-05-20T02:58:12;99950.72;;;27.54
48894;BMP280;34710;35.798;139.446;2023-05-20T03:00:37;99949.60;;;27.95
48894;BMP280;34710;35.798;139.446;2023-05-20T03:03:02;99950.68;;;27.97
48894;BMP280;34710;35.798;139.446;2023-05-20T03:05:27;99946.13;;;28.43
48894;BMP280;34710;35.798;139.446;2023-05-20T03:07:51;99944.54;;;28.38
48894;BMP280;34710;35.798;139.446;2023-05-20T03:10:17;99942.47;;;26.77
48894;BMP280;34710;35.798;139.446;2023-05-20T03:12:42;99936.76;;;25.50
48894;BMP280;34710;35.798;139.446;2023-05-20T03:15:08;99933.24;;;26.03
48894;BMP280;34710;35.798;139.446;2023-05-20T03:17:32;99933.68;;;24.22
48894;BMP280;34710;35.798;139.446;2023-05-20T03:19:57;99932.87;;;25.39
48894;BMP280;34710;35.798;139.446;2023-05-20T03:22:22;99928.14;;;25.90
48894;BMP280;34710;35.798;139.446;2023-05-20T03:24:47;99919.61;;;26.18
48894;BMP280;34710;35.798;139.446;2023-05-20T03:27:13;99919.06;;;26.13
48894;BMP280;34710;35.798;139.446;2023-05-20T03:29:38;99920.18;;;26.04
48894;BMP280;34710;35.798;139.446;2023-05-20T03:32:04;99915.38;;;25.94
48894;BMP280;34710;35.798;139.446;2023-05-20T03:34:28;99911.66;;;26.44
48894;BMP280;34710;35.798;139.446;2023-05-20T03:36:54;99911.81;;;26.93
48894;BMP280;34710;35.798;139.446;2023-05-20T03:39:18;99919.10;;;26.65
48894;BMP280;34710;35.798;139.446;2023-05-20T03:41:44;99915.22;;;26.71
48894;BMP280;34710;35.798;139.446;2023-05-20T03:44:09;99913.92;;;27.13
48894;BMP280;34710;35.798;139.446;2023-05-20T03:46:34;99917.75;;;27.13
48894;BMP280;34710;35.798;139.446;2023-05-20T03:48:59;99917.57;;;27.24
48894;BMP280;34710;35.798;139.446;2023-05-20T03:51:24;99916.73;;;27.97
48894;BMP280;34710;35.798;139.446;2023-05-20T03:53:49;99912.52;;;27.65
48894;BMP280;34710;35.798;139.446;2023-05-20T03:56:14;99910.71;;;27.84
48894;BMP280;34710;35.798;139.446;2023-05-20T03:58:39;99918.67;;;27.18
48894;BMP280;34710;35.798;139.446;2023-05-20T04:01:05;99917.26;;;25.68
48894;BMP280;34710;35.798;139.446;2023-05-20T04:03:30;99920.05;;;26.02
48894;BMP280;34710;35.798;139.446;2023-05-20T04:05:55;99920.88;;;25.30
48894;BMP280;34710;35.798;139.446;2023-05-20T04:08:20;99915.34;;;25.15
48894;BMP280;34710;35.798;139.446;2023-05-20T04:10:46;99913.32;;;25.94
48894;BMP280;34710;35.798;139.446;2023-05-20T04:13:11;99912.34;;;25.91
48894;BMP280;34710;35.798;139.446;2023-05-20T04:15:36;99916.96;;;25.06
48894;BMP280;34710;35.798;139.446;2023-05-20T04:18:00;99921.13;;;24.32
48894;BMP280;34710;35.798;139.446;2023-05-20T04:20:26;99927.08;;;24.11
48894;BMP280;34710;35.798;139.446;2023-05-20T04:22:51;99929.92;;;23.24
48894;BMP280;34710;35.798;139.446;2023-05-20T04:25:16;99932.00;;;23.00
48894;BMP280;34710;35.798;139.446;2023-05-20T04:27:41;99935.47;;;23.50
48894;BMP280;34710;35.798;139.446;2023-05-20T04:30:07;99937.88;;;23.84
48894;BMP280;34710;35.798;139.446;2023-05-20T04:32:32;99940.06;;;21.60
48894;BMP280;34710;35.798;139.446;2023-05-20T04:34:57;99937.13;;;21.22
48894;BMP280;34710;35.798;139.446;2023-05-20T04:37:22;99939.12;;;20.56
48894;BMP280;34710;35.798;139.446;2023-05-20T04:39:47;99939.44;;;22.13
48894;BMP280;34710;35.798;139.446;2023-05-20T04:42:12;99939.70;;;23.69
48894;BMP280;34710;35.798;139.446;2023-05-20T04:44:37;99944.37;;;23.92
48894;BMP280;34710;35.798;139.446;2023-05-20T04:47:02;99935.60;;;24.61
48894;BMP280;34710;35.798;139.446;2023-05-20T04:49:27;99936.42;;;24.63
48894;BMP280;34710;35.798;139.446;2023-05-20T04:51:52;99938.47;;;24.63
48894;BMP280;34710;35.798;139.446;2023-05-20T04:54:17;99937.20;;;24.21
48894;BMP280;34710;35.798;139.446;2023-05-20T04:56:44;99933.67;;;24.96
48894;BMP280;34710;35.798;139.446;2023-05-20T04:59:08;99937.73;;;23.45
48894;BMP280;34710;35.798;139.446;2023-05-20T05:01:33;99937.16;;;23.80
48894;BMP280;34710;35.798;139.446;2023-05-20T05:03:58;99939.06;;;25.22
48894;BMP280;34710;35.798;139.446;2023-05-20T05:06:23;99939.66;;;25.52
48894;BMP280;34710;35.798;139.446;2023-05-20T05:08:49;99937.99;;;25.55
48894;BMP280;34710;35.798;139.446;2023-05-20T05:11:14;99934.82;;;26.03
48894;BMP280;34710;35.798;139.446;2023-05-20T05:13:39;99933.97;;;25.24
48894;BMP280;34710;35.798;139.446;2023-05-20T05:16:04;99936.27;;;24.13
48894;BMP280;34710;35.798;139.446;2023-05-20T05:18:29;99931.39;;;25.65
48894;BMP280;34710;35.798;139.446;2023-05-20T05:20:59;99931.21;;;25.63
48894;BMP280;34710;35.798;139.446;2023-05-20T05:23:19;99931.75;;;24.36
48894;BMP280;34710;35.798;139.446;2023-05-20T05:25:44;99927.72;;;24.95
48894;BMP280;34710;35.798;139.446;2023-05-20T05:28:10;99926.07;;;26.14
48894;BMP280;34710;35.798;139.446;2023-05-20T05:30:34;99921.11;;;26.02
48894;BMP280;34710;35.798;139.446;2023-05-20T05:32:59;99919.60;;;25.87
48894;BMP280;34710;35.798;139.446;2023-05-20T05:35:25;99919.40;;;25.83
48894;BMP280;34710;35.798;139.446;2023-05-20T05:37:49;99925.44;;;26.07
48894;BMP280;34710;35.798;139.446;2023-05-20T05:40:15;99932.03;;;26.51
48894;BMP280;34710;35.798;139.446;2023-05-20T05:42:40;99932.35;;;25.93
48894;BMP280;34710;35.798;139.446;2023-05-20T05:45:05;99930.50;;;26.65
48894;BMP280;34710;35.798;139.446;2023-05-20T05:47:30;99935.41;;;26.74
48894;BMP280;34710;35.798;139.446;2023-05-20T05:49:55;99935.49;;;26.13
48894;BMP280;34710;35.798;139.446;2023-05-20T05:52:20;99936.90;;;26.22
48894;BMP280;34710;35.798;139.446;2023-05-20T05:54:45;99943.52;;;26.64
48894;BMP280;34710;35.798;139.446;2023-05-20T05:57:10;99947.76;;;26.65
48894;BMP280;34710;35.798;139.446;2023-05-20T05:59:35;99954.11;;;26.29
48894;BMP280;34710;35.798;139.446;2023-05-20T06:02:00;99953.72;;;26.34
48894;BMP280;34710;35.798;139.446;2023-05-20T06:04:25;99952.45;;;26.24
48894;BMP280;34710;35.798;139.446;2023-05-20T06:06:50;99950.61;;;26.04
48894;BMP280;34710;35.798;139.446;2023-05-20T06:09:15;99947.18;;;25.66
48894;BMP280;34710;35.798;139.446;2023-05-20T06:11:40;99945.10;;;25.36
48894;BMP280;34710;35.798;139.446;2023-05-20T06:14:05;99945.76;;;25.78
48894;BMP280;34710;35.798;139.446;2023-05-20T06:16:30;99947.03;;;25.00
48894;BMP280;34710;35.798;139.446;2023-05-20T06:18:55;99942.57;;;24.74
48894;BMP280;34710;35.798;139.446;2023-05-20T06:21:21;99941.19;;;25.74
48894;BMP280;34710;35.798;139.446;2023-05-20T06:23:46;99937.57;;;25.78
48894;BMP280;34710;35.798;139.446;2023-05-20T06:26:11;99938.16;;;25.41
48894;BMP280;34710;35.798;139.446;2023-05-20T06:28:37;99942.33;;;24.20
48894;BMP280;34710;35.798;139.446;2023-05-20T06:31:01;99938.74;;;25.61
48894;BMP280;34710;35.798;139.446;2023-05-20T06:33:26;99939.12;;;24.98
48894;BMP280;34710;35.798;139.446;2023-05-20T06:35:51;99937.59;;;25.49
48894;BMP280;34710;35.798;139.446;2023-05-20T06:38:16;99934.41;;;25.75
48894;BMP280;34710;35.798;139.446;2023-05-20T06:40:41;99929.87;;;25.99
48894;BMP280;34710;35.798;139.446;2023-05-20T06:43:06;99929.42;;;25.60
48894;BMP280;34710;35.798;139.446;2023-05-20T06:45:31;99933.72;;;26.18
48894;BMP280;34710;35.798;139.446;2023-05-20T06:47:56;99935.43;;;24.74
48894;BMP280;34710;35.798;139.446;2023-05-20T06:50:22;99940.58;;;24.79
48894;BMP280;34710;35.798;139.446;2023-05-20T06:52:46;99939.84;;;25.70
48894;BMP280;34710;35.798;139.446;2023-05-20T06:55:12;99941.94;;;26.06
48894;BMP280;34710;35.798;139.446;2023-05-20T06:57:37;99940.04;;;26.34
48894;BMP280;34710;35.798;139.446;2023-05-20T07:00:02;99943.37;;;26.11
48894;BMP280;34710;35.798;139.446;2023-05-20T07:02:26;99941.63;;;26.28
48894;BMP280;34710;35.798;139.446;2023-05-20T07:04:52;99939.78;;;25.90
48894;BMP280;34710;35.798;139.446;2023-05-20T07:07:17;99939.44;;;25.93
48894;BMP280;34710;35.798;139.446;2023-05-20T07:09:44;99944.92;;;25.43
48894;BMP280;34710;35.798;139.446;2023-05-20T07:12:08;99942.23;;;25.48
48894;BMP280;34710;35.798;139.446;2023-05-20T07:14:32;99940.55;;;25.52
48894;BMP280;34710;35.798;139.446;2023-05-20T07:16:57;99935.74;;;26.09
48894;BMP280;34710;35.798;139.446;2023-05-20T07:19:22;99935.82;;;26.52
48894;BMP280;34710;35.798;139.446;2023-05-20T07:21:47;99939.15;;;26.62
48894;BMP280;34710;35.798;139.446;2023-05-20T07:24:13;99938.66;;;26.47
48894;BMP280;34710;35.798;139.446;2023-05-20T07:26:37;99943.45;;;26.85
48894;BMP280;34710;35.798;139.446;2023-05-20T07:29:03;99943.62;;;25.55
48894;BMP280;34710;35.798;139.446;2023-05-20T07:31:28;99945.15;;;25.55
48894;BMP280;34710;35.798;139.446;2023-05-20T07:33:53;99950.84;;;24.23
48894;BMP280;34710;35.798;139.446;2023-05-20T07:36:18;99957.74;;;24.78
48894;BMP280;34710;35.798;139.446;2023-05-20T07:38:42;99958.27;;;25.04
48894;BMP280;34710;35.798;139.446;2023-05-20T07:41:08;99967.05;;;25.48
48894;BMP280;34710;35.798;139.446;2023-05-20T07:43:33;99971.91;;;24.88
48894;BMP280;34710;35.798;139.446;2023-05-20T07:45:58;99973.17;;;25.51
48894;BMP280;34710;35.798;139.446;2023-05-20T07:48:23;99973.18;;;25.96
48894;BMP280;34710;35.798;139.446;2023-05-20T07:50:48;99969.04;;;25.89
48894;BMP280;34710;35.798;139.446;2023-05-20T07:53:14;99967.42;;;25.75
48894;BMP280;34710;35.798;139.446;2023-05-20T07:55:38;99969.68;;;25.56
48894;BMP280;34710;35.798;139.446;2023-05-20T07:58:04;99971.58;;;26.09
48894;BMP280;34710;35.798;139.446;2023-05-20T08:00:29;99972.43;;;25.42
48894;BMP280;34710;35.798;139.446;2023-05-20T08:02:54;99970.12;;;25.74
48894;BMP280;34710;35.798;139.446;2023-05-20T08:05:19;99971.54;;;25.17
48894;BMP280;34710;35.798;139.446;2023-05-20T08:07:44;99971.70;;;25.44
48894;BMP280;34710;35.798;139.446;2023-05-20T08:10:10;99969.72;;;25.63
48894;BMP280;34710;35.798;139.446;2023-05-20T08:12:34;99969.87;;;24.80
48894;BMP280;34710;35.798;139.446;2023-05-20T08:15:00;99966.93;;;25.33
48894;BMP280;34710;35.798;139.446;2023-05-20T08:17:25;99962.02;;;25.87
48894;BMP280;34710;35.798;139.446;2023-05-20T08:19:50;99964.44;;;24.78
48894;BMP280;34710;35.798;139.446;2023-05-20T08:22:15;99964.58;;;24.95
48894;BMP280;34710;35.798;139.446;2023-05-20T08:24:40;99965.67;;;24.80
48894;BMP280;34710;35.798;139.446;2023-05-20T08:27:05;99962.16;;;24.82
48894;BMP280;34710;35.798;139.446;2023-05-20T08:29:30;99961.45;;;24.23
48894;BMP280;34710;35.798;139.446;2023-05-20T08:31:56;99960.62;;;24.53
48894;BMP280;34710;35.798;139.446;2023-05-20T08:34:20;99963.79;;;24.31
48894;BMP280;34710;35.798;139.446;2023-05-20T08:36:45;99959.42;;;24.94
48894;BMP280;34710;35.798;139.446;2023-05-20T08:39:11;99956.77;;;24.52
48894;BMP280;34710;35.798;139.446;2023-05-20T08:41:36;99955.25;;;24.43
48894;BMP280;34710;35.798;139.446;2023-05-20T08:44:01;99959.20;;;24.84
48894;BMP280;34710;35.798;139.446;2023-05-20T08:46:26;99957.83;;;24.87
48894;BMP280;34710;35.798;139.446;2023-05-20T08:48:51;99956.65;;;25.07
48894;BMP280;34710;35.798;139.446;2023-05-20T08:51:17;99957.37;;;25.17
48894;BMP280;34710;35.798;139.446;2023-05-20T08:53:41;99963.59;;;23.80
48894;BMP280;34710;35.798;139.446;2023-05-20T08:56:07;99960.13;;;24.81
48894;BMP280;34710;35.798;139.446;2023-05-20T08:58:31;99960.33;;;24.97
48894;BMP280;34710;35.798;139.446;2023-05-20T09:00:56;99962.96;;;24.76
48894;BMP280;34710;35.798;139.446;2023-05-20T09:03:21;99965.97;;;24.95
48894;BMP280;34710;35.798;139.446;2023-05-20T09:05:47;99972.30;;;25.34
48894;BMP280;34710;35.798;139.446;2023-05-20T09:08:12;99971.53;;;25.06
48894;BMP280;34710;35.798;139.446;2023-05-20T09:10:37;99973.54;;;24.82
48894;BMP280;34710;35.798;139.446;2023-05-20T09:13:02;99973.37;;;24.63
48894;BMP280;34710;35.798;139.446;2023-05-20T09:15:27;99974.86;;;24.35
48894;BMP280;34710;35.798;139.446;2023-05-20T09:17:52;99974.48;;;24.96
48894;BMP280;34710;35.798;139.446;2023-05-20T09:20:17;99982.63;;;22.73
48894;BMP280;34710;35.798;139.446;2023-05-20T09:22:42;99978.25;;;24.60
48894;BMP280;34710;35.798;139.446;2023-05-20T09:25:08;99984.88;;;24.44
48894;BMP280;34710;35.798;139.446;2023-05-20T09:27:32;99996.72;;;22.83
48894;BMP280;34710;35.798;139.446;2023-05-20T09:29:57;100001.52;;;23.34
48894;BMP280;34710;35.798;139.446;2023-05-20T09:32:22;100005.79;;;22.98
48894;BMP280;34710;35.798;139.446;2023-05-20T09:34:47;100006.89;;;22.43
48894;BMP280;34710;35.798;139.446;2023-05-20T09:37:15;100008.32;;;23.27
48894;BMP280;34710;35.798;139.446;2023-05-20T09:39:43;100012.45;;;23.24
48894;BMP280;34710;35.798;139.446;2023-05-20T09:42:08;100016.88;;;22.97
48894;BMP280;34710;35.798;139.446;2023-05-20T09:44:28;100023.15;;;23.28
48894;BMP280;34710;35.798;139.446;2023-05-20T09:46:53;100027.87;;;23.14
48894;BMP280;34710;35.798;139.446;2023-05-20T09:49:18;100029.21;;;21.44
48894;BMP280;34710;35.798;139.446;2023-05-20T09:51:44;100033.53;;;22.59
48894;BMP280;34710;35.798;139.446;2023-05-20T09:54:09;100039.91;;;23.90
48894;BMP280;34710;35.798;139.446;2023-05-20T09:56:34;100038.68;;;21.37
48894;BMP280;34710;35.798;139.446;2023-05-20T09:58:58;100044.22;;;21.28
48894;BMP280;34710;35.798;139.446;2023-05-20T10:01:24;100052.56;;;22.54
48894;BMP280;34710;35.798;139.446;2023-05-20T10:03:48;100055.62;;;22.74
48894;BMP280;34710;35.798;139.446;2023-05-20T10:08:56;100065.73;;;20.85
48894;BMP280;34710;35.798;139.446;2023-05-20T10:11:09;100068.82;;;19.59
48894;BMP280;34710;35.798;139.446;2023-05-20T10:13:41;100069.19;;;19.56
48894;BMP280;34710;35.798;139.446;2023-05-20T10:16:02;100069.80;;;20.80
48894;BMP280;34710;35.798;139.446;2023-05-20T10:18:29;100075.16;;;19.91
48894;BMP280;34710;35.798;139.446;2023-05-20T10:20:47;100074.03;;;20.29
48894;BMP280;34710;35.798;139.446;2023-05-20T10:23:20;100082.54;;;20.04
48894;BMP280;34710;35.798;139.446;2023-05-20T10:25:35;100091.45;;;19.46
48894;BMP280;34710;35.798;139.446;2023-05-20T10:28:07;100091.58;;;20.30
48894;BMP280;34710;35.798;139.446;2023-05-20T10:30:26;100093.76;;;19.64
48894;BMP280;34710;35.798;139.446;2023-05-20T10:32:54;100096.73;;;20.14
48894;BMP280;34710;35.798;139.446;2023-05-20T10:35:22;100098.46;;;20.08
48894;BMP280;34710;35.798;139.446;2023-05-20T10:37:43;100109.35;;;19.82
48894;BMP280;34710;35.798;139.446;2023-05-20T10:40:11;100112.02;;;18.98
48894;BMP280;34710;35.798;139.446;2023-05-20T10:42:33;100110.54;;;19.81
48894;BMP280;34710;35.798;139.446;2023-05-20T10:44:57;100111.81;;;19.53
48894;BMP280;34710;35.798;139.446;2023-05-20T10:47:22;100113.96;;;18.64
48894;BMP280;34710;35.798;139.446;2023-05-20T10:49:48;100108.22;;;20.77
48894;BMP280;34710;35.798;139.446;2023-05-20T10:52:14;100103.91;;;20.83
48894;BMP280;34710;35.798;139.446;2023-05-20T10:54:43;100109.27;;;21.72
48894;BMP280;34710;35.798;139.446;2023-05-20T10:57:07;100116.89;;;20.36
48894;BMP280;34710;35.798;139.446;2023-05-20T10:59:28;100115.56;;;20.31
48894;BMP280;34710;35.798;139.446;2023-05-20T11:01:53;100121.15;;;20.38
48894;BMP280;34710;35.798;139.446;2023-05-20T11:04:18;100121.58;;;21.05
48894;BMP280;34710;35.798;139.446;2023-05-20T11:06:49;100129.93;;;19.92
48894;BMP280;34710;35.798;139.446;2023-05-20T11:09:09;100133.42;;;20.36
48894;BMP280;34710;35.798;139.446;2023-05-20T11:11:35;100140.95;;;19.38
48894;BMP280;34710;35.798;139.446;2023-05-20T11:14:00;100146.50;;;19.62
48894;BMP280;34710;35.798;139.446;2023-05-20T11:16:25;100152.28;;;19.58
48894;BMP280;34710;35.798;139.446;2023-05-20T11:18:50;100159.55;;;19.39
48894;BMP280;34710;35.798;139.446;2023-05-20T11:21:16;100158.46;;;20.75
48894;BMP280;34710;35.798;139.446;2023-05-20T11:23:40;100171.00;;;19.46
48894;BMP280;34710;35.798;139.446;2023-05-20T11:26:05;100173.48;;;20.62
48894;BMP280;34710;35.798;139.446;2023-05-20T11:28:31;100180.57;;;19.59
48894;BMP280;34710;35.798;139.446;2023-05-20T11:30:55;100182.18;;;19.36
48894;BMP280;34710;35.798;139.446;2023-05-20T11:33:21;100182.27;;;20.85
48894;BMP280;34710;35.798;139.446;2023-05-20T11:35:47;100179.88;;;20.15
48894;BMP280;34710;35.798;139.446;2023-05-20T11:38:11;100179.27;;;19.97
48894;BMP280;34710;35.798;139.446;2023-05-20T11:40:36;100179.96;;;20.33
48894;BMP280;34710;35.798;139.446;2023-05-20T11:43:02;100180.11;;;21.13
48894;BMP280;34710;35.798;139.446;2023-05-20T11:48:03;100189.38;;;21.13
48894;BMP280;34710;35.798;139.446;2023-05-20T11:50:19;100192.13;;;21.01
48894;BMP280;34710;35.798;139.446;2023-05-20T11:52:42;100194.06;;;19.42
48894;BMP280;34710;35.798;139.446;2023-05-20T11:55:11;100198.95;;;19.86
48894;BMP280;34710;35.798;139.446;2023-05-20T11:57:32;100198.06;;;20.76
48894;BMP280;34710;35.798;139.446;2023-05-20T11:59:58;100197.55;;;18.83
48894;BMP280;34710;35.798;139.446;2023-05-20T12:02:23;100198.47;;;18.60
48894;BMP280;34710;35.798;139.446;2023-05-20T12:04:48;100195.41;;;19.20
48894;BMP280;34710;35.798;139.446;2023-05-20T12:07:14;100198.87;;;19.31
48894;BMP280;34710;35.798;139.446;2023-05-20T12:09:39;100193.04;;;17.90
48894;BMP280;34710;35.798;139.446;2023-05-20T12:12:04;100188.23;;;18.30
48894;BMP280;34710;35.798;139.446;2023-05-20T12:14:30;100190.66;;;17.88
48894;BMP280;34710;35.798;139.446;2023-05-20T12:16:56;100190.56;;;18.43
48894;BMP280;34710;35.798;139.446;2023-05-20T12:19:21;100190.10;;;18.07
48894;BMP280;34710;35.798;139.446;2023-05-20T12:21:46;100188.38;;;18.52
48894;BMP280;34710;35.798;139.446;2023-05-20T12:24:11;100188.99;;;17.88
48894;BMP280;34710;35.798;139.446;2023-05-20T12:26:36;100190.46;;;18.33
48894;BMP280;34710;35.798;139.446;2023-05-20T12:29:01;100195.23;;;17.81
48894;BMP280;34710;35.798;139.446;2023-05-20T12:31:27;100197.08;;;19.41
48894;BMP280;34710;35.798;139.446;2023-05-20T12:33:52;100200.36;;;20.19
48894;BMP280;34710;35.798;139.446;2023-05-20T12:36:16;100209.26;;;18.35
48894;BMP280;34710;35.798;139.446;2023-05-20T12:38:42;100212.92;;;18.64
48894;BMP280;34710;35.798;139.446;2023-05-20T12:41:07;100205.31;;;18.80
48894;BMP280;34710;35.798;139.446;2023-05-20T12:43:33;100204.41;;;19.17
48894;BMP280;34710;35.798;139.446;2023-05-20T12:45:58;100203.35;;;17.90
48894;BMP280;34710;35.798;139.446;2023-05-20T12:48:23;100198.53;;;17.38
48894;BMP280;34710;35.798;139.446;2023-05-20T12:50:48;100198.28;;;17.81
48894;BMP280;34710;35.798;139.446;2023-05-20T12:53:13;100192.60;;;17.82
48894;BMP280;34710;35.798;139.446;2023-05-20T12:55:39;100190.51;;;19.53
48894;BMP280;34710;35.798;139.446;2023-05-20T12:58:05;100195.83;;;19.74
48894;BMP280;34710;35.798;139.446;2023-05-20T13:00:29;100196.24;;;19.08
48894;BMP280;34710;35.798;139.446;2023-05-20T13:02:55;100199.10;;;19.12
48894;BMP280;34710;35.798;139.446;2023-05-20T13:05:20;100195.93;;;18.91
48894;BMP280;34710;35.798;139.446;2023-05-20T13:07:45;100196.26;;;18.64
48894;BMP280;34710;35.798;139.446;2023-05-20T13:10:11;100192.21;;;18.36
48894;BMP280;34710;35.798;139.446;2023-05-20T13:12:36;100192.14;;;19.40
48894;BMP280;34710;35.798;139.446;2023-05-20T13:15:01;100195.24;;;18.09
48894;BMP280;34710;35.798;139.446;2023-05-20T13:17:26;100198.29;;;17.98
48894;BMP280;34710;35.798;139.446;2023-05-20T13:19:51;100204.69;;;17.50
48894;BMP280;34710;35.798;139.446;2023-05-20T13:22:16;100209.10;;;17.66
48894;BMP280;34710;35.798;139.446;2023-05-20T13:24:41;100207.71;;;18.36
48894;BMP280;34710;35.798;139.446;2023-05-20T13:27:06;100203.45;;;17.81
48894;BMP280;34710;35.798;139.446;2023-05-20T13:29:32;100202.70;;;18.62
48894;BMP280;34710;35.798;139.446;2023-05-20T13:31:57;100198.23;;;18.46